sensor_id;sensor_type;location;lat;lon;timestamp;pressure;altitude;pressure_sealevel;temperature;humidity
35758;BME280;21879;50.110;18.900;2023-02-03T00:04:27;99270.88;;;1.59;65.92
35758;BME280;21879;50.110;18.900;2023-02-03T00:14:55;99282.83;;;1.53;65.69
35758;BME280;21879;50.110;18.900;2023-02-03T00:25:23;99283.90;;;1.49;66.12
35758;BME280;21879;50.110;18.900;2023-02-03T00:35:52;99292.45;;;1.49;65.95
35758;BME280;21879;50.110;18.900;2023-02-03T00:46:19;99301.07;;;1.55;65.73
35758;BME280;21879;50.110;18.900;2023-02-03T00:56:48;99307.10;;;1.51;65.41
35758;BME280;21879;50.110;18.900;2023-02-03T01:07:16;99302.66;;;1.47;65.60
35758;BME280;21879;50.110;18.900;2023-02-03T01:17:44;99294.91;;;1.50;65.41
35758;BME280;21879;50.110;18.900;2023-02-03T01:28:12;99289.11;;;1.47;65.32
35758;BME280;21879;50.110;18.900;2023-02-03T01:38:40;99293.64;;;1.48;65.69
35758;BME280;21879;50.110;18.900;2023-02-03T01:49:13;99292.27;;;1.53;65.30
35758;BME280;21879;50.110;18.900;2023-02-03T01:59:45;99278.92;;;1.54;65.45
35758;BME280;21879;50.110;18.900;2023-02-03T02:10:13;99276.19;;;1.49;65.48
35758;BME280;21879;50.110;18.900;2023-02-03T02:21:08;99264.65;;;1.48;65.71
35758;BME280;21879;50.110;18.900;2023-02-03T02:31:51;99243.27;;;1.39;65.33
35758;BME280;21879;50.110;18.900;2023-02-03T02:42:25;99243.63;;;1.45;65.50
35758;BME280;21879;50.110;18.900;2023-02-03T02:52:59;99221.92;;;1.61;65.60
35758;BME280;21879;50.110;18.900;2023-02-03T03:03:26;99208.42;;;1.77;65.47
35758;BME280;21879;50.110;18.900;2023-02-03T03:13:56;99204.69;;;1.99;65.16
35758;BME280;21879;50.110;18.900;2023-02-03T03:24:26;99223.92;;;2.16;64.78
35758;BME280;21879;50.110;18.900;2023-02-03T03:34:56;99225.33;;;2.33;64.32
35758;BME280;21879;50.110;18.900;2023-02-03T03:45:26;99213.10;;;2.43;63.76
35758;BME280;21879;50.110;18.900;2023-02-03T03:55:55;99187.83;;;2.09;63.08
35758;BME280;21879;50.110;18.900;2023-02-03T04:06:26;99177.83;;;1.60;63.40
35758;BME280;21879;50.110;18.900;2023-02-03T04:16:55;99170.91;;;1.33;64.02
35758;BME280;21879;50.110;18.900;2023-02-03T04:27:22;99161.64;;;1.32;64.37
35758;BME280;21879;50.110;18.900;2023-02-03T04:37:51;99141.63;;;1.18;64.15
35758;BME280;21879;50.110;18.900;2023-02-03T04:48:18;99127.20;;;0.92;64.88
35758;BME280;21879;50.110;18.900;2023-02-03T04:58:46;99110.39;;;0.91;65.03
35758;BME280;21879;50.110;18.900;2023-02-03T05:09:16;99105.02;;;0.75;65.31
35758;BME280;21879;50.110;18.900;2023-02-03T05:19:43;99086.61;;;0.58;65.27
35758;BME280;21879;50.110;18.900;2023-02-03T05:30:12;99055.36;;;0.50;65.66
35758;BME280;21879;50.110;18.900;2023-02-03T05:40:40;99043.96;;;0.52;66.18
35758;BME280;21879;50.110;18.900;2023-02-03T05:51:25;99026.78;;;0.46;66.13
35758;BME280;21879;50.110;18.900;2023-02-03T06:01:52;99016.22;;;0.37;66.64
35758;BME280;21879;50.110;18.900;2023-02-03T06:12:20;99002.94;;;0.29;66.77
35758;BME280;21879;50.110;18.900;2023-02-03T06:22:48;98992.10;;;0.22;66.82
35758;BME280;21879;50.110;18.900;2023-02-03T06:33:16;98980.15;;;0.18;66.83
35758;BME280;21879;50.110;18.900;2023-02-03T06:43:44;98974.20;;;0.19;66.87
35758;BME280;21879;50.110;18.900;2023-02-03T06:54:13;98954.48;;;0.22;66.37
35758;BME280;21879;50.110;18.900;2023-02-03T07:04:41;98938.73;;;0.18;66.22
35758;BME280;21879;50.110;18.900;2023-02-03T07:15:11;98928.00;;;0.18;66.06
35758;BME280;21879;50.110;18.900;2023-02-03T07:25:39;98911.17;;;0.16;65.77
35758;BME280;21879;50.110;18.900;2023-02-03T07:36:09;98892.19;;;0.16;65.39
35758;BME280;21879;50.110;18.900;2023-02-03T07:46:37;98893.75;;;0.22;65.53
35758;BME280;21879;50.110;18.900;2023-02-03T07:57:10;98875.56;;;0.40;65.28
35758;BME280;21879;50.110;18.900;2023-02-03T08:07:38;98856.59;;;0.57;65.01
35758;BME280;21879;50.110;18.900;2023-02-03T08:18:06;98842.98;;;0.59;64.87
35758;BME280;21879;50.110;18.900;2023-02-03T08:28:39;98837.87;;;0.65;65.23
35758;BME280;21879;50.110;18.900;2023-02-03T08:39:07;98826.11;;;0.72;66.29
35758;BME280;21879;50.110;18.900;2023-02-03T08:49:35;98804.38;;;0.78;67.46
35758;BME280;21879;50.110;18.900;2023-02-03T09:00:06;98779.42;;;0.68;68.72
35758;BME280;21879;50.110;18.900;2023-02-03T09:10:34;98759.83;;;0.48;69.65
35758;BME280;21879;50.110;18.900;2023-02-03T09:21:03;98733.45;;;0.36;70.29
35758;BME280;21879;50.110;18.900;2023-02-03T09:31:31;98706.81;;;0.27;71.37
35758;BME280;21879;50.110;18.900;2023-02-03T09:52:59;98634.33;;;0.16;73.06
35758;BME280;21879;50.110;18.900;2023-02-03T10:03:35;98603.25;;;0.17;73.65
35758;BME280;21879;50.110;18.900;2023-02-03T10:14:13;98565.19;;;0.13;74.07
35758;BME280;21879;50.110;18.900;2023-02-03T10:24:51;98524.97;;;0.00;74.54
35758;BME280;21879;50.110;18.900;2023-02-03T10:35:21;98501.45;;;-0.03;74.93
35758;BME280;21879;50.110;18.900;2023-02-03T10:45:52;98475.45;;;0.03;75.26
35758;BME280;21879;50.110;18.900;2023-02-03T10:56:23;98439.24;;;0.10;75.72
35758;BME280;21879;50.110;18.900;2023-02-03T11:06:56;98408.61;;;0.15;75.74
35758;BME280;21879;50.110;18.900;2023-02-03T11:17:28;98374.80;;;0.16;76.20
35758;BME280;21879;50.110;18.900;2023-02-03T11:28:05;98330.33;;;0.22;76.35
35758;BME280;21879;50.110;18.900;2023-02-03T11:38:35;98285.95;;;0.32;76.74
35758;BME280;21879;50.110;18.900;2023-02-03T11:49:11;98254.50;;;0.40;77.08
35758;BME280;21879;50.110;18.900;2023-02-03T11:59:54;98220.46;;;0.47;77.29
35758;BME280;21879;50.110;18.900;2023-02-03T12:10:38;98188.45;;;0.62;77.74
35758;BME280;21879;50.110;18.900;2023-02-03T12:21:23;98157.77;;;0.75;77.52
35758;BME280;21879;50.110;18.900;2023-02-03T12:32:01;98116.86;;;0.85;77.64
35758;BME280;21879;50.110;18.900;2023-02-03T12:42:34;98082.24;;;0.91;78.15
35758;BME280;21879;50.110;18.900;2023-02-03T12:53:09;98055.04;;;1.01;78.12
35758;BME280;21879;50.110;18.900;2023-02-03T13:03:44;98039.34;;;1.13;78.08
35758;BME280;21879;50.110;18.900;2023-02-03T13:14:18;98013.03;;;1.16;78.06
35758;BME280;21879;50.110;18.900;2023-02-03T13:24:51;97991.75;;;1.14;78.18
35758;BME280;21879;50.110;18.900;2023-02-03T13:35:44;97955.95;;;1.13;78.29
35758;BME280;21879;50.110;18.900;2023-02-03T13:46:25;97923.14;;;1.06;78.25
35758;BME280;21879;50.110;18.900;2023-02-03T13:56:56;97896.89;;;1.02;78.20
35758;BME280;21879;50.110;18.900;2023-02-03T14:07:32;97878.70;;;0.99;78.73
35758;BME280;21879;50.110;18.900;2023-02-03T14:18:03;97857.48;;;1.00;78.68
35758;BME280;21879;50.110;18.900;2023-02-03T14:28:41;97829.44;;;1.02;78.97
35758;BME280;21879;50.110;18.900;2023-02-03T14:39:41;97795.09;;;1.06;79.20
35758;BME280;21879;50.110;18.900;2023-02-03T14:50:33;97781.46;;;1.12;79.38
35758;BME280;21879;50.110;18.900;2023-02-03T15:01:11;97782.94;;;1.20;79.35
35758;BME280;21879;50.110;18.900;2023-02-03T15:11:50;97774.02;;;1.32;79.53
35758;BME280;21879;50.110;18.900;2023-02-03T15:22:23;97801.14;;;1.52;80.03
35758;BME280;21879;50.110;18.900;2023-02-03T15:32:59;97842.88;;;1.75;79.63
35758;BME280;21879;50.110;18.900;2023-02-03T15:43:33;97793.30;;;1.87;79.72
35758;BME280;21879;50.110;18.900;2023-02-03T15:54:06;97819.34;;;2.01;79.78
35758;BME280;21879;50.110;18.900;2023-02-03T16:04:36;97842.48;;;2.20;79.55
35758;BME280;21879;50.110;18.900;2023-02-03T16:15:19;97851.55;;;2.33;79.83
35758;BME280;21879;50.110;18.900;2023-02-03T16:26:02;97858.87;;;2.46;79.75
35758;BME280;21879;50.110;18.900;2023-02-03T16:36:30;97856.59;;;2.61;79.56
35758;BME280;21879;50.110;18.900;2023-02-03T16:47:36;97855.88;;;2.76;79.32
35758;BME280;21879;50.110;18.900;2023-02-03T16:58:23;97865.73;;;2.86;79.13
35758;BME280;21879;50.110;18.900;2023-02-03T17:19:39;97881.25;;;2.96;78.83
35758;BME280;21879;50.110;18.900;2023-02-03T17:30:08;97893.66;;;3.00;78.85
35758;BME280;21879;50.110;18.900;2023-02-03T17:40:39;97906.09;;;3.11;78.75
35758;BME280;21879;50.110;18.900;2023-02-03T17:51:25;97914.73;;;3.19;78.64
35758;BME280;21879;50.110;18.900;2023-02-03T18:02:12;97928.53;;;3.25;78.35
35758;BME280;21879;50.110;18.900;2023-02-03T18:12:40;97946.65;;;3.37;78.31
35758;BME280;21879;50.110;18.900;2023-02-03T18:23:08;97960.59;;;3.40;78.17
35758;BME280;21879;50.110;18.900;2023-02-03T18:33:36;97966.06;;;3.36;77.96
35758;BME280;21879;50.110;18.900;2023-02-03T18:44:02;97969.81;;;3.33;78.20
35758;BME280;21879;50.110;18.900;2023-02-03T18:54:30;97979.58;;;3.28;77.86
35758;BME280;21879;50.110;18.900;2023-02-03T19:04:59;97981.08;;;3.23;77.78
35758;BME280;21879;50.110;18.900;2023-02-03T19:15:26;97992.42;;;3.24;78.05
35758;BME280;21879;50.110;18.900;2023-02-03T19:25:54;98001.48;;;3.18;77.56
35758;BME280;21879;50.110;18.900;2023-02-03T19:36:23;97988.31;;;3.04;77.77
35758;BME280;21879;50.110;18.900;2023-02-03T19:46:51;97986.10;;;2.87;77.58
35758;BME280;21879;50.110;18.900;2023-02-03T19:57:20;97988.04;;;2.75;77.94
35758;BME280;21879;50.110;18.900;2023-02-03T20:07:48;97991.86;;;2.80;78.50
35758;BME280;21879;50.110;18.900;2023-02-03T20:18:18;97989.35;;;2.86;78.26
35758;BME280;21879;50.110;18.900;2023-02-03T20:28:47;97985.36;;;2.82;78.29
35758;BME280;21879;50.110;18.900;2023-02-03T20:39:18;97975.11;;;2.88;78.56
35758;BME280;21879;50.110;18.900;2023-02-03T20:49:46;97972.40;;;2.93;78.56
35758;BME280;21879;50.110;18.900;2023-02-03T21:00:14;97970.39;;;2.97;78.14
35758;BME280;21879;50.110;18.900;2023-02-03T21:10:44;97978.67;;;3.00;78.63
35758;BME280;21879;50.110;18.900;2023-02-03T21:21:14;97975.67;;;3.14;78.42
35758;BME280;21879;50.110;18.900;2023-02-03T21:31:43;97974.07;;;3.26;78.30
35758;BME280;21879;50.110;18.900;2023-02-03T21:42:24;97966.11;;;3.42;78.40
35758;BME280;21879;50.110;18.900;2023-02-03T21:53:23;97963.81;;;3.59;78.19
35758;BME280;21879;50.110;18.900;2023-02-03T22:03:53;97959.83;;;3.54;77.88
35758;BME280;21879;50.110;18.900;2023-02-03T22:14:21;97967.52;;;3.47;77.98
35758;BME280;21879;50.110;18.900;2023-02-03T22:24:48;97964.22;;;3.44;78.19
35758;BME280;21879;50.110;18.900;2023-02-03T22:35:16;97963.77;;;3.51;78.22
35758;BME280;21879;50.110;18.900;2023-02-03T22:45:44;97962.08;;;3.57;78.29
35758;BME280;21879;50.110;18.900;2023-02-03T22:56:11;97958.67;;;3.64;78.24
35758;BME280;21879;50.110;18.900;2023-02-03T23:06:39;97957.84;;;3.66;78.23
35758;BME280;21879;50.110;18.900;2023-02-03T23:17:07;97959.18;;;3.62;78.25
35758;BME280;21879;50.110;18.900;2023-02-03T23:27:34;97951.44;;;3.60;78.17
35758;BME280;21879;50.110;18.900;2023-02-03T23:38:02;97942.47;;;3.54;78.22
35758;BME280;21879;50.110;18.900;2023-02-03T23:48:29;97922.87;;;3.51;78.30
35758;BME280;21879;50.110;18.900;2023-02-03T23:58:57;97915.81;;;3.50;78.45
